Time;durP1;ratioP1;P1;durP2;ratioP2;P2;SDS_P1;SDS_P2;PMS_P1;PMS_P2;Temp;Humidity;BMP_temperature;BMP_pressure;BME280_temperature;BME280_humidity;BME280_pressure;Samples;Min_cycle;Max_cycle;Signal;HPM_P1;HPM_P2
2021/05/08 00:00:15;;;;;;;0.10;0.10;;;4.60;99.90;;;;;;5053604;28;20682;-80
2021/05/08 00:02:41;;;;;;;0.10;0.10;;;4.70;99.90;;;;;;5054173;28;20179;-80
2021/05/08 00:05:07;;;;;;;0.10;0.10;;;4.80;99.90;;;;;;5053271;28;20675;-79
2021/05/08 00:07:33;;;;;;;0.00;0.00;;;4.90;99.90;;;;;;5058995;28;20205;-80
2021/05/08 00:09:58;;;;;;;0.77;0.40;;;4.90;99.90;;;;;;5054021;28;20199;-80
2021/05/08 00:12:24;;;;;;;0.00;0.00;;;4.90;99.90;;;;;;5054025;28;20179;-80
2021/05/08 00:14:50;;;;;;;0.10;0.10;;;4.90;99.90;;;;;;5054087;28;20706;-80
2021/05/08 00:17:15;;;;;;;0.00;0.00;;;4.90;99.90;;;;;;5054524;28;20208;-80
2021/05/08 00:19:41;;;;;;;0.10;0.10;;;5.00;99.90;;;;;;5052943;28;20608;-80
2021/05/08 00:22:06;;;;;;;0.00;0.00;;;4.90;99.90;;;;;;5052669;28;20187;-79
2021/05/08 00:24:32;;;;;;;0.20;0.20;;;4.90;99.90;;;;;;5052845;28;20212;-80
2021/05/08 00:26:58;;;;;;;0.10;0.10;;;4.90;99.90;;;;;;5052894;28;20267;-79
2021/05/08 00:29:24;;;;;;;0.10;0.10;;;4.90;99.90;;;;;;5052802;28;20709;-80
2021/05/08 00:31:49;;;;;;;0.10;0.10;;;4.80;99.90;;;;;;5051568;28;20181;-79
2021/05/08 00:34:15;;;;;;;0.10;0.10;;;4.70;99.90;;;;;;5052831;28;20621;-80
2021/05/08 00:36:40;;;;;;;0.10;0.10;;;4.70;99.90;;;;;;5053069;28;20207;-80
2021/05/08 00:39:06;;;;;;;0.23;0.23;;;4.50;99.90;;;;;;5050851;28;20262;-80
2021/05/08 00:41:32;;;;;;;0.10;0.10;;;4.50;99.90;;;;;;5051176;28;20270;-79
2021/05/08 00:43:58;;;;;;;0.53;0.30;;;4.40;99.90;;;;;;5051561;28;20187;-80
2021/05/08 00:46:25;;;;;;;0.20;0.20;;;4.30;99.90;;;;;;5052360;28;20269;-79
2021/05/08 00:48:52;;;;;;;0.17;0.17;;;4.40;99.90;;;;;;5051979;28;20190;-80
2021/05/08 00:51:18;;;;;;;0.10;0.10;;;4.40;99.90;;;;;;5052339;28;20701;-79
2021/05/08 00:53:45;;;;;;;0.10;0.10;;;4.40;99.90;;;;;;5051597;28;20181;-79
2021/05/08 00:56:11;;;;;;;0.10;0.10;;;4.40;99.90;;;;;;5052869;28;20308;-80
2021/05/08 00:58:37;;;;;;;0.27;0.20;;;4.30;99.90;;;;;;5051846;28;20301;-80
2021/05/08 01:01:02;;;;;;;0.20;0.20;;;4.30;99.90;;;;;;5052023;28;20190;-79
2021/05/08 01:03:28;;;;;;;0.07;0.07;;;4.30;99.90;;;;;;5052128;28;20617;-79
2021/05/08 01:05:53;;;;;;;0.17;0.17;;;4.30;99.90;;;;;;5052384;28;20207;-79
2021/05/08 01:08:20;;;;;;;0.23;0.13;;;4.20;99.90;;;;;;5052583;28;20227;-80
2021/05/08 01:10:46;;;;;;;0.10;0.10;;;4.20;99.90;;;;;;5053529;28;20190;-78
2021/05/08 01:13:12;;;;;;;0.10;0.10;;;4.20;99.90;;;;;;5052962;28;20177;-78
2021/05/08 01:15:37;;;;;;;0.40;0.40;;;4.10;99.90;;;;;;5050773;28;20562;-80
2021/05/08 01:18:03;;;;;;;0.10;0.10;;;4.10;99.90;;;;;;5051685;28;20350;-80
2021/05/08 01:20:29;;;;;;;0.10;0.10;;;4.10;99.90;;;;;;5052127;28;20192;-80
2021/05/08 01:22:55;;;;;;;0.10;0.10;;;4.10;99.90;;;;;;5051585;28;20188;-79
2021/05/08 01:25:23;;;;;;;0.10;0.10;;;4.20;99.90;;;;;;5052289;28;20208;-80
2021/05/08 01:27:57;;;;;;;0.00;0.00;;;4.30;99.90;;;;;;5051313;28;20220;-80
2021/05/08 01:30:26;;;;;;;0.10;0.10;;;4.30;99.90;;;;;;5052427;28;20238;-80
2021/05/08 01:32:52;;;;;;;0.10;0.10;;;4.40;99.90;;;;;;5051080;28;20209;-79
2021/05/08 01:35:17;;;;;;;0.10;0.10;;;4.50;99.90;;;;;;5053724;28;20201;-78
2021/05/08 01:37:45;;;;;;;0.10;0.10;;;4.50;99.90;;;;;;5052533;28;20203;-80
2021/05/08 01:40:12;;;;;;;0.10;0.10;;;4.50;99.90;;;;;;5050959;28;20190;-77
2021/05/08 01:42:43;;;;;;;0.20;0.20;;;4.40;99.90;;;;;;5052227;28;20179;-80
2021/05/08 01:45:17;;;;;;;0.20;0.20;;;4.30;99.90;;;;;;5050410;28;20626;-78
2021/05/08 01:47:43;;;;;;;0.10;0.10;;;4.30;99.90;;;;;;5051867;28;20549;-80
2021/05/08 01:50:12;;;;;;;0.10;0.10;;;4.20;99.90;;;;;;5050702;28;20197;-80
2021/05/08 01:52:38;;;;;;;0.53;0.30;;;4.10;99.90;;;;;;5050491;28;20185;-79
2021/05/08 01:55:07;;;;;;;0.10;0.10;;;4.10;99.90;;;;;;5051895;28;20675;-80
2021/05/08 01:57:44;;;;;;;0.07;0.07;;;4.10;99.90;;;;;;5046151;28;20238;-79
2021/05/08 02:00:17;;;;;;;0.33;0.13;;;4.00;99.90;;;;;;5049119;28;20655;-80
2021/05/08 02:02:42;;;;;;;0.07;0.07;;;4.00;99.90;;;;;;5050297;28;20179;-80
2021/05/08 02:05:08;;;;;;;0.23;0.23;;;4.00;99.90;;;;;;5050245;28;20187;-79
2021/05/08 02:07:35;;;;;;;0.10;0.10;;;4.10;99.90;;;;;;5055674;28;20206;-79
2021/05/08 02:10:01;;;;;;;0.10;0.10;;;4.00;99.90;;;;;;5052513;28;20228;-79
2021/05/08 02:12:31;;;;;;;0.00;0.00;;;4.10;99.90;;;;;;5056937;28;20528;-80
2021/05/08 02:14:57;;;;;;;0.10;0.10;;;4.00;99.90;;;;;;5051383;28;20188;-78
2021/05/08 02:17:23;;;;;;;0.10;0.10;;;4.00;99.90;;;;;;5050921;28;20221;-79
2021/05/08 02:19:49;;;;;;;0.20;0.20;;;3.90;99.90;;;;;;5049765;28;20186;-80
2021/05/08 02:22:16;;;;;;;0.67;0.47;;;3.80;99.90;;;;;;5052155;28;20284;-79
2021/05/08 02:24:42;;;;;;;0.10;0.10;;;3.80;99.90;;;;;;5050389;28;20671;-80
2021/05/08 02:27:08;;;;;;;0.40;0.37;;;3.70;99.90;;;;;;5050562;28;20244;-79
2021/05/08 02:29:33;;;;;;;0.00;0.00;;;3.70;99.90;;;;;;5048229;28;20195;-79
2021/05/08 02:31:59;;;;;;;0.10;0.10;;;3.70;99.90;;;;;;5051021;28;20205;-80
2021/05/08 02:34:24;;;;;;;0.10;0.10;;;3.70;99.90;;;;;;5049387;28;20192;-78
2021/05/08 02:36:50;;;;;;;0.17;0.17;;;3.80;99.90;;;;;;5050445;28;20731;-79
2021/05/08 02:39:16;;;;;;;0.10;0.10;;;3.70;99.90;;;;;;5050298;28;20236;-79
2021/05/08 02:41:41;;;;;;;0.00;0.00;;;3.70;99.90;;;;;;5051630;28;20703;-80
2021/05/08 02:44:07;;;;;;;0.00;0.00;;;3.70;99.90;;;;;;5049741;28;20188;-79
2021/05/08 02:46:32;;;;;;;0.77;0.30;;;3.70;99.90;;;;;;5048720;28;20214;-80
2021/05/08 02:48:58;;;;;;;0.10;0.10;;;3.70;99.90;;;;;;5050325;28;20203;-79
2021/05/08 02:51:24;;;;;;;0.00;0.00;;;3.70;99.90;;;;;;5049604;28;20206;-79
2021/05/08 02:53:50;;;;;;;0.20;0.20;;;3.70;99.90;;;;;;5050327;28;20196;-79
2021/05/08 02:56:16;;;;;;;0.23;0.23;;;3.70;99.90;;;;;;5049331;28;20253;-80
2021/05/08 02:58:41;;;;;;;0.00;0.00;;;3.70;99.90;;;;;;5049442;28;20223;-79
2021/05/08 03:01:07;;;;;;;0.23;0.23;;;3.70;99.90;;;;;;5051239;28;20182;-79
2021/05/08 03:03:32;;;;;;;0.10;0.10;;;3.70;99.90;;;;;;5051520;28;20553;-79
2021/05/08 03:05:58;;;;;;;0.10;0.10;;;3.60;99.90;;;;;;5051663;28;20619;-79
2021/05/08 03:08:23;;;;;;;0.10;0.10;;;3.60;99.90;;;;;;5052453;28;20195;-80
2021/05/08 03:10:49;;;;;;;0.10;0.10;;;3.60;99.90;;;;;;5049925;28;20685;-80
2021/05/08 03:13:15;;;;;;;0.20;0.20;;;3.60;99.90;;;;;;5059191;28;20737;-79
2021/05/08 03:15:40;;;;;;;0.10;0.10;;;3.50;99.90;;;;;;5049021;28;20192;-78
2021/05/08 03:18:06;;;;;;;0.20;0.20;;;3.50;99.90;;;;;;5050153;28;20307;-80
2021/05/08 03:20:31;;;;;;;0.10;0.10;;;3.40;99.90;;;;;;5051549;28;20191;-79
2021/05/08 03:22:57;;;;;;;0.10;0.10;;;3.40;99.90;;;;;;5050230;28;20191;-79
2021/05/08 03:25:22;;;;;;;0.07;0.07;;;3.40;99.90;;;;;;5040936;28;20624;-80
2021/05/08 03:27:48;;;;;;;0.30;0.30;;;3.30;99.90;;;;;;5050325;28;20206;-80
2021/05/08 03:30:14;;;;;;;0.10;0.10;;;3.30;99.90;;;;;;5053154;28;20194;-80
2021/05/08 03:32:40;;;;;;;0.10;0.10;;;3.40;99.90;;;;;;5054556;28;20238;-79
2021/05/08 03:35:06;;;;;;;0.30;0.13;;;3.50;99.90;;;;;;5053071;28;20632;-80
2021/05/08 03:37:31;;;;;;;0.20;0.20;;;3.60;99.90;;;;;;5054469;28;20227;-79
2021/05/08 03:39:57;;;;;;;0.10;0.10;;;3.60;99.90;;;;;;5054854;28;20321;-78
2021/05/08 03:42:22;;;;;;;0.30;0.20;;;3.60;99.90;;;;;;5054748;28;20193;-80
2021/05/08 03:44:48;;;;;;;0.13;0.13;;;3.50;99.90;;;;;;5052692;28;20213;-79
2021/05/08 03:47:13;;;;;;;0.20;0.20;;;3.50;99.90;;;;;;5053692;28;20256;-79
2021/05/08 03:49:39;;;;;;;0.10;0.10;;;3.40;99.90;;;;;;5053190;28;20239;-80
2021/05/08 03:52:05;;;;;;;0.10;0.10;;;3.30;99.90;;;;;;5054263;28;20538;-80
2021/05/08 03:54:31;;;;;;;0.67;0.33;;;3.20;99.90;;;;;;5052119;28;20529;-80
2021/05/08 03:56:59;;;;;;;0.10;0.10;;;3.20;99.90;;;;;;5052143;28;20588;-80
2021/05/08 03:59:25;;;;;;;0.30;0.30;;;3.20;99.90;;;;;;5054472;28;20611;-79
2021/05/08 04:01:50;;;;;;;0.10;0.10;;;3.20;99.90;;;;;;5053011;28;20236;-81
2021/05/08 04:04:16;;;;;;;0.10;0.10;;;3.20;99.90;;;;;;5053011;28;20191;-82
2021/05/08 04:06:42;;;;;;;0.10;0.10;;;3.30;99.90;;;;;;5053985;28;20211;-80
2021/05/08 04:09:09;;;;;;;0.10;0.10;;;3.50;99.90;;;;;;5034554;28;20191;-80
2021/05/08 04:11:35;;;;;;;0.10;0.10;;;3.70;99.90;;;;;;5045569;28;20194;-80
2021/05/08 04:14:01;;;;;;;0.10;0.10;;;3.80;99.90;;;;;;5062179;28;20220;-80
2021/05/08 04:16:27;;;;;;;0.80;0.33;;;3.80;99.90;;;;;;5050255;28;20213;-80
2021/05/08 04:18:52;;;;;;;0.10;0.10;;;3.80;99.90;;;;;;5051801;28;20206;-80
2021/05/08 04:21:18;;;;;;;0.10;0.10;;;3.80;99.90;;;;;;5052280;28;20182;-80
2021/05/08 04:23:43;;;;;;;0.10;0.10;;;3.90;99.90;;;;;;5052195;28;20191;-80
2021/05/08 04:26:09;;;;;;;0.20;0.20;;;3.90;99.90;;;;;;5055394;28;20684;-80
2021/05/08 04:28:34;;;;;;;0.10;0.10;;;4.00;99.90;;;;;;5057811;28;20530;-80
2021/05/08 04:31:00;;;;;;;0.10;0.10;;;4.00;99.90;;;;;;5056022;28;20192;-79
2021/05/08 04:33:25;;;;;;;0.10;0.10;;;4.20;99.90;;;;;;5062486;28;20291;-80
2021/05/08 04:35:51;;;;;;;0.27;0.27;;;4.40;99.90;;;;;;5053253;28;20215;-80
2021/05/08 04:38:16;;;;;;;0.47;0.47;;;4.50;99.90;;;;;;5053145;28;20240;-80
2021/05/08 04:40:42;;;;;;;0.10;0.10;;;4.50;99.90;;;;;;5066497;28;20197;-79
2021/05/08 04:43:08;;;;;;;0.37;0.33;;;4.70;99.90;;;;;;5055013;28;20210;-80
2021/05/08 04:45:34;;;;;;;0.10;0.10;;;4.80;99.90;;;;;;5065601;28;20181;-80
2021/05/08 04:47:59;;;;;;;0.10;0.10;;;4.70;99.90;;;;;;5053884;28;20535;-80
2021/05/08 04:50:26;;;;;;;0.20;0.20;;;4.80;99.90;;;;;;5059091;28;20287;-79
2021/05/08 04:52:52;;;;;;;0.20;0.20;;;5.00;99.90;;;;;;5052928;28;20617;-80
2021/05/08 04:55:18;;;;;;;0.57;0.57;;;5.10;99.90;;;;;;5050668;28;21594;-80
2021/05/08 04:57:44;;;;;;;0.33;0.33;;;4.90;99.90;;;;;;5049668;28;20219;-80
2021/05/08 05:00:11;;;;;;;0.20;0.20;;;5.10;99.90;;;;;;5054060;28;20184;-80
2021/05/08 05:02:37;;;;;;;0.03;0.03;;;5.10;99.90;;;;;;5053679;28;20632;-80
2021/05/08 05:05:03;;;;;;;0.20;0.20;;;5.10;99.90;;;;;;5051894;28;20278;-80
2021/05/08 05:07:29;;;;;;;0.10;0.10;;;5.20;99.90;;;;;;5053103;28;20237;-79
2021/05/08 05:09:54;;;;;;;0.10;0.10;;;5.20;99.90;;;;;;5052595;28;20230;-80
2021/05/08 05:12:20;;;;;;;0.47;0.47;;;5.40;99.90;;;;;;5052305;28;20177;-80
2021/05/08 05:14:46;;;;;;;0.33;0.33;;;5.50;99.90;;;;;;5051085;28;20200;-80
2021/05/08 05:17:11;;;;;;;0.00;0.00;;;5.60;99.90;;;;;;5052599;28;20208;-83
2021/05/08 05:19:37;;;;;;;0.10;0.10;;;5.70;99.90;;;;;;5053525;28;20214;-83
2021/05/08 05:22:02;;;;;;;0.10;0.10;;;5.80;99.90;;;;;;5047906;28;20219;-84
2021/05/08 05:24:28;;;;;;;0.10;0.10;;;5.90;99.90;;;;;;5051628;28;20197;-82
2021/05/08 05:26:53;;;;;;;0.10;0.10;;;6.10;99.90;;;;;;5051383;28;20248;-80
2021/05/08 05:29:19;;;;;;;0.20;0.20;;;6.10;99.90;;;;;;5051229;28;20189;-80
2021/05/08 05:31:45;;;;;;;0.20;0.20;;;6.30;99.90;;;;;;5050611;28;20251;-80
2021/05/08 05:34:10;;;;;;;0.07;0.07;;;6.50;99.90;;;;;;5051307;28;20197;-80
2021/05/08 05:36:36;;;;;;;0.23;0.20;;;6.80;99.90;;;;;;5048236;28;20677;-80
2021/05/08 05:39:02;;;;;;;0.20;0.20;;;6.90;99.90;;;;;;5042308;28;20278;-83
2021/05/08 05:41:28;;;;;;;0.33;0.33;;;6.90;99.90;;;;;;5045099;28;20200;-81
2021/05/08 05:43:53;;;;;;;0.50;0.50;;;7.00;99.90;;;;;;5051355;28;20260;-83
2021/05/08 05:46:19;;;;;;;0.53;0.40;;;7.20;99.90;;;;;;5048784;28;20701;-84
2021/05/08 05:48:44;;;;;;;0.20;0.20;;;7.40;99.90;;;;;;5042761;28;20186;-80
2021/05/08 05:51:10;;;;;;;0.13;0.13;;;7.70;99.90;;;;;;5047778;28;20193;-80
2021/05/08 05:53:36;;;;;;;0.20;0.20;;;7.80;99.90;;;;;;5045911;28;20190;-82
2021/05/08 05:56:02;;;;;;;0.50;0.50;;;7.90;99.90;;;;;;5050128;28;20213;-83
2021/05/08 05:58:28;;;;;;;0.20;0.20;;;8.10;99.90;;;;;;5048638;28;20209;-83
2021/05/08 06:00:53;;;;;;;0.40;0.40;;;8.10;99.90;;;;;;5051454;28;20696;-83
2021/05/08 06:03:20;;;;;;;0.23;0.23;;;8.20;99.90;;;;;;5050568;28;20186;-83
2021/05/08 06:05:45;;;;;;;0.20;0.20;;;8.40;99.90;;;;;;5049389;28;20214;-83
2021/05/08 06:08:12;;;;;;;0.40;0.40;;;8.50;99.90;;;;;;5049010;28;20245;-83
2021/05/08 06:10:38;;;;;;;0.30;0.30;;;8.70;99.90;;;;;;5051672;28;20642;-83
2021/05/08 06:13:03;;;;;;;0.17;0.17;;;8.80;99.90;;;;;;5048971;28;20280;-83
2021/05/08 06:15:29;;;;;;;0.30;0.30;;;8.90;99.90;;;;;;5048631;28;20568;-83
2021/05/08 06:17:57;;;;;;;0.40;0.40;;;9.10;99.90;;;;;;5049759;28;20884;-85
2021/05/08 06:20:22;;;;;;;0.73;0.73;;;9.20;99.90;;;;;;5046008;28;20191;-83
2021/05/08 06:22:48;;;;;;;0.10;0.10;;;9.40;99.90;;;;;;5050357;28;20702;-83
2021/05/08 06:25:14;;;;;;;0.20;0.20;;;9.50;99.90;;;;;;5047221;28;20191;-83
2021/05/08 06:27:41;;;;;;;0.30;0.30;;;9.60;99.90;;;;;;5046821;28;20630;-83
2021/05/08 06:30:07;;;;;;;1.13;0.80;;;9.40;99.90;;;;;;5044847;28;20677;-82
2021/05/08 06:32:33;;;;;;;4.63;0.90;;;9.60;99.90;;;;;;5046481;28;20651;-83
2021/05/08 06:34:58;;;;;;;0.43;0.43;;;9.80;99.90;;;;;;5044248;28;20193;-83
2021/05/08 06:37:24;;;;;;;1.13;0.50;;;9.90;99.90;;;;;;5044229;28;20198;-83
2021/05/08 06:39:49;;;;;;;0.40;0.40;;;9.90;99.90;;;;;;5048186;28;20212;-83
2021/05/08 06:42:15;;;;;;;0.63;0.63;;;10.00;99.90;;;;;;5046055;28;20211;-82
2021/05/08 06:44:41;;;;;;;0.57;0.50;;;9.50;99.90;;;;;;5047054;28;20184;-83
2021/05/08 06:47:13;;;;;;;0.43;0.43;;;9.60;99.90;;;;;;5048019;28;20203;-83
2021/05/08 06:49:39;;;;;;;0.40;0.40;;;9.50;99.90;;;;;;5045752;28;20227;-82
2021/05/08 06:52:05;;;;;;;0.30;0.30;;;9.40;99.90;;;;;;5049519;28;20196;-83
2021/05/08 06:54:31;;;;;;;2.30;0.60;;;9.40;99.90;;;;;;5045860;28;20282;-83
2021/05/08 06:56:57;;;;;;;0.37;0.37;;;9.90;99.90;;;;;;5046244;28;20215;-83
2021/05/08 06:59:22;;;;;;;0.63;0.37;;;9.90;99.90;;;;;;5045336;28;20221;-83
2021/05/08 07:01:48;;;;;;;0.47;0.47;;;10.20;99.90;;;;;;5046874;28;20194;-83
2021/05/08 07:04:13;;;;;;;0.30;0.30;;;10.50;99.90;;;;;;5044591;28;20222;-82
2021/05/08 07:06:39;;;;;;;0.33;0.33;;;10.80;99.90;;;;;;5051777;28;20193;-83
2021/05/08 07:09:05;;;;;;;0.63;0.43;;;10.60;99.90;;;;;;5046080;28;20616;-84
2021/05/08 07:11:30;;;;;;;0.30;0.30;;;10.10;99.90;;;;;;5052970;28;20192;-81
2021/05/08 07:13:56;;;;;;;0.93;0.40;;;10.40;99.90;;;;;;5061666;28;20269;-81
2021/05/08 07:16:21;;;;;;;0.50;0.50;;;10.70;99.90;;;;;;5053466;28;20205;-81
2021/05/08 07:18:47;;;;;;;0.83;0.83;;;10.70;99.90;;;;;;5053506;28;20205;-81
2021/05/08 07:21:13;;;;;;;0.20;0.20;;;10.00;99.90;;;;;;5055579;28;20177;-81
2021/05/08 07:23:38;;;;;;;0.67;0.60;;;10.00;99.90;;;;;;5051482;28;20193;-81
2021/05/08 07:26:04;;;;;;;0.80;0.47;;;10.40;99.90;;;;;;5049288;28;20212;-80
2021/05/08 07:28:29;;;;;;;0.50;0.37;;;11.00;99.90;;;;;;5052427;28;20221;-82
2021/05/08 07:30:55;;;;;;;0.30;0.30;;;11.30;99.90;;;;;;5050897;28;20290;-80
2021/05/08 07:33:22;;;;;;;2.50;0.47;;;11.50;99.90;;;;;;5045356;28;20304;-81
2021/05/08 07:35:49;;;;;;;0.20;0.20;;;11.80;99.90;;;;;;5057244;28;20196;-81
2021/05/08 07:38:15;;;;;;;0.97;0.80;;;12.20;99.90;;;;;;5048559;28;20241;-81
2021/05/08 07:40:42;;;;;;;0.40;0.40;;;12.40;99.90;;;;;;5050338;28;20284;-82
2021/05/08 07:43:09;;;;;;;0.13;0.13;;;12.70;99.90;;;;;;5048486;28;20577;-82
2021/05/08 07:45:35;;;;;;;0.83;0.23;;;12.80;99.90;;;;;;5053260;28;20173;-80
2021/05/08 07:48:00;;;;;;;0.27;0.20;;;13.10;99.90;;;;;;5052937;28;20235;-81
2021/05/08 07:50:28;;;;;;;0.67;0.50;;;13.10;99.90;;;;;;5051327;28;20251;-82
2021/05/08 07:52:54;;;;;;;0.70;0.70;;;13.20;99.90;;;;;;5049036;28;20557;-81
2021/05/08 07:55:20;;;;;;;0.43;0.43;;;13.70;99.90;;;;;;5053400;28;20625;-81
2021/05/08 07:57:46;;;;;;;0.43;0.43;;;14.30;99.90;;;;;;5051870;28;20217;-81
2021/05/08 08:00:14;;;;;;;0.37;0.37;;;13.90;99.90;;;;;;5042832;28;20183;-82
2021/05/08 08:02:40;;;;;;;2.20;1.70;;;13.90;99.90;;;;;;5048235;28;20209;-83
2021/05/08 08:05:07;;;;;;;0.57;0.57;;;13.30;99.90;;;;;;5044210;28;20186;-84
2021/05/08 08:07:32;;;;;;;3.67;0.43;;;13.50;99.90;;;;;;5048871;28;20260;-80
2021/05/08 08:09:58;;;;;;;0.30;0.30;;;13.80;99.90;;;;;;5053897;28;20186;-81
2021/05/08 08:12:24;;;;;;;0.50;0.40;;;14.00;99.90;;;;;;5055037;28;20270;-81
2021/05/08 08:14:51;;;;;;;0.23;0.23;;;14.30;99.90;;;;;;5056258;28;20657;-81
2021/05/08 08:17:18;;;;;;;0.23;0.23;;;14.60;99.90;;;;;;5052449;28;20201;-81
2021/05/08 08:19:47;;;;;;;0.47;0.47;;;14.70;99.90;;;;;;5053127;28;20220;-81
2021/05/08 08:22:14;;;;;;;0.50;0.50;;;14.60;99.90;;;;;;5053324;28;20181;-81
2021/05/08 08:24:39;;;;;;;0.53;0.43;;;14.40;99.90;;;;;;5053577;28;20576;-81
2021/05/08 08:27:05;;;;;;;0.40;0.40;;;14.30;99.90;;;;;;5054099;28;20223;-81
2021/05/08 08:29:31;;;;;;;0.57;0.57;;;13.80;99.90;;;;;;5053056;28;20288;-81
2021/05/08 08:31:57;;;;;;;0.50;0.50;;;13.30;99.90;;;;;;5051806;28;20217;-81
2021/05/08 08:34:23;;;;;;;0.50;0.50;;;13.60;99.90;;;;;;5050667;28;20269;-81
2021/05/08 08:36:48;;;;;;;1.33;0.90;;;14.00;99.90;;;;;;5049613;28;20678;-81
2021/05/08 08:39:14;;;;;;;0.53;0.53;;;13.70;99.90;;;;;;5050676;28;20213;-81
2021/05/08 08:41:40;;;;;;;0.57;0.30;;;13.80;99.90;;;;;;5051403;28;20191;-80
2021/05/08 08:44:09;;;;;;;0.23;0.23;;;14.30;99.90;;;;;;5050136;28;20190;-79
2021/05/08 08:46:45;;;;;;;0.20;0.20;;;14.40;99.90;;;;;;5051712;28;20209;-81
2021/05/08 08:49:12;;;;;;;1.07;1.07;;;14.70;99.90;;;;;;5050954;28;20198;-81
2021/05/08 08:51:39;;;;;;;0.87;0.67;;;14.40;99.90;;;;;;5049167;28;20196;-81
2021/05/08 08:54:05;;;;;;;0.83;0.83;;;13.70;99.90;;;;;;5061196;28;20186;-81
2021/05/08 08:56:37;;;;;;;0.30;0.30;;;13.70;99.90;;;;;;5050917;28;20213;-82
2021/05/08 08:59:12;;;;;;;0.40;0.40;;;14.20;99.90;;;;;;5049769;28;20682;-81
2021/05/08 09:01:37;;;;;;;0.30;0.30;;;14.20;99.90;;;;;;5045692;28;20728;-81
2021/05/08 09:04:03;;;;;;;0.63;0.60;;;14.70;99.90;;;;;;5060244;28;20268;-81
2021/05/08 09:06:29;;;;;;;0.70;0.70;;;14.80;99.90;;;;;;5052958;28;20547;-81
2021/05/08 09:08:57;;;;;;;6.33;0.80;;;14.30;99.90;;;;;;5057801;28;20186;-81
2021/05/08 09:11:24;;;;;;;0.63;0.63;;;13.50;99.90;;;;;;5056767;28;20184;-80
2021/05/08 09:14:21;;;;;;;0.50;0.50;;;14.20;99.90;;;;;;5052583;28;20184;-80
2021/05/08 09:17:17;;;;;;;0.20;0.20;;;14.70;99.90;;;;;;5045687;28;20292;-80
2021/05/08 09:19:45;;;;;;;0.63;0.50;;;15.20;99.90;;;;;;5047786;28;20263;-81
2021/05/08 09:22:42;;;;;;;0.37;0.37;;;15.70;99.90;;;;;;5051249;28;20191;-80
2021/05/08 09:25:13;;;;;;;0.70;0.60;;;15.50;99.90;;;;;;5052064;28;20187;-81
2021/05/08 09:27:42;;;;;;;0.33;0.30;;;15.60;99.90;;;;;;5059697;28;20204;-80
2021/05/08 09:30:15;;;;;;;0.37;0.30;;;14.90;99.90;;;;;;5053478;28;20191;-81
2021/05/08 09:32:42;;;;;;;0.30;0.30;;;15.30;99.90;;;;;;5054349;28;20192;-80
2021/05/08 09:35:10;;;;;;;0.20;0.20;;;15.60;99.90;;;;;;5066250;28;20191;-80
2021/05/08 09:37:37;;;;;;;0.60;0.60;;;15.80;99.90;;;;;;5060679;28;20383;-81
2021/05/08 09:40:25;;;;;;;0.37;0.30;;;16.10;99.90;;;;;;5070110;28;20558;-81
2021/05/08 09:42:51;;;;;;;0.50;0.50;;;15.70;99.90;;;;;;5052106;28;20183;-80
2021/05/08 09:45:17;;;;;;;0.77;0.77;;;16.00;99.90;;;;;;5051333;28;20186;-81
2021/05/08 09:47:43;;;;;;;1.00;0.60;;;15.80;99.90;;;;;;5052466;28;20294;-81
2021/05/08 09:50:10;;;;;;;0.30;0.30;;;16.00;99.90;;;;;;5055077;28;20206;-81
2021/05/08 09:52:46;;;;;;;0.40;0.37;;;16.40;99.90;;;;;;5047496;28;20191;-80
2021/05/08 09:55:14;;;;;;;0.30;0.27;;;16.70;99.90;;;;;;5058698;28;20217;-81
2021/05/08 09:57:40;;;;;;;0.70;0.60;;;16.80;99.90;;;;;;5051173;28;20203;-81
2021/05/08 10:00:33;;;;;;;0.40;0.40;;;16.30;99.90;;;;;;5061972;28;20187;-79
2021/05/08 10:03:13;;;;;;;0.23;0.23;;;16.60;99.90;;;;;;5066028;28;20183;-81
2021/05/08 10:05:40;;;;;;;0.27;0.27;;;17.00;99.90;;;;;;5044066;28;20181;-81
2021/05/08 10:08:08;;;;;;;0.57;0.53;;;17.30;99.90;;;;;;5054103;28;20489;-81
2021/05/08 10:10:34;;;;;;;0.87;0.83;;;17.60;99.90;;;;;;5052490;28;20211;-81
2021/05/08 10:13:05;;;;;;;0.47;0.47;;;17.60;99.90;;;;;;5054315;28;20189;-81
2021/05/08 10:15:32;;;;;;;0.67;0.67;;;17.80;99.90;;;;;;5054530;28;20199;-81
2021/05/08 10:17:59;;;;;;;0.50;0.50;;;17.90;99.90;;;;;;5053602;28;20210;-81
2021/05/08 10:20:25;;;;;;;0.97;0.97;;;18.00;99.90;;;;;;5055217;28;20188;-80
2021/05/08 10:22:59;;;;;;;2.10;0.90;;;18.10;99.90;;;;;;5051530;28;20177;-79
2021/05/08 10:25:26;;;;;;;0.87;0.77;;;18.00;99.90;;;;;;5056747;28;20198;-81
2021/05/08 10:27:52;;;;;;;0.53;0.53;;;17.10;99.90;;;;;;5065013;28;20217;-80
2021/05/08 10:30:39;;;;;;;0.63;0.63;;;17.20;99.90;;;;;;5045365;28;20177;-81
2021/05/08 10:33:13;;;;;;;0.63;0.40;;;17.30;99.90;;;;;;5050837;28;20286;-81
2021/05/08 10:35:40;;;;;;;0.40;0.40;;;17.90;99.90;;;;;;5053440;28;20211;-80
2021/05/08 10:38:08;;;;;;;0.73;0.60;;;18.30;99.90;;;;;;5050348;28;20212;-81
2021/05/08 10:40:48;;;;;;;0.93;0.57;;;18.40;99.90;;;;;;5047149;28;20181;-81
2021/05/08 10:43:37;;;;;;;0.40;0.40;;;18.50;99.90;;;;;;5047675;28;20207;-81
2021/05/08 10:46:04;;;;;;;0.40;0.40;;;18.50;99.90;;;;;;5054711;28;20209;-81
2021/05/08 10:48:29;;;;;;;0.77;0.77;;;18.60;99.90;;;;;;5051549;28;20592;-81
2021/05/08 10:50:58;;;;;;;0.63;0.40;;;18.90;99.90;;;;;;5043777;28;20247;-79
2021/05/08 10:53:41;;;;;;;3.10;1.20;;;19.10;99.90;;;;;;5049157;28;20591;-82
2021/05/08 10:56:27;;;;;;;0.87;0.53;;;19.00;99.90;;;;;;5044622;28;20251;-81
2021/05/08 10:59:03;;;;;;;0.63;0.63;;;19.20;99.90;;;;;;5047618;28;20235;-81
2021/05/08 11:01:43;;;;;;;0.57;0.57;;;19.30;99.90;;;;;;5045686;28;20653;-82
2021/05/08 11:04:10;;;;;;;0.40;0.40;;;19.30;99.90;;;;;;5046187;28;20208;-81
2021/05/08 11:06:35;;;;;;;0.57;0.37;;;19.60;99.90;;;;;;5050907;28;20201;-81
2021/05/08 11:09:01;;;;;;;0.30;0.30;;;19.70;99.90;;;;;;5056723;28;20191;-80
2021/05/08 11:11:50;;;;;;;0.63;0.63;;;19.80;99.90;;;;;;5049449;28;20276;-80
2021/05/08 11:14:52;;;;;;;0.43;0.43;;;19.70;99.90;;;;;;5042517;28;20186;-81
2021/05/08 11:17:17;;;;;;;0.70;0.70;;;19.60;99.90;;;;;;5041310;28;20209;-80
2021/05/08 11:19:43;;;;;;;0.30;0.30;;;19.50;99.90;;;;;;5043240;28;20206;-81
2021/05/08 11:22:08;;;;;;;0.37;0.37;;;19.50;99.90;;;;;;5048534;28;20178;-81
2021/05/08 11:24:36;;;;;;;1.07;0.90;;;19.40;99.90;;;;;;5050508;28;20238;-81
2021/05/08 11:27:02;;;;;;;0.50;0.50;;;19.40;99.90;;;;;;5048008;28;20263;-80
2021/05/08 11:29:32;;;;;;;1.10;0.60;;;19.40;99.90;;;;;;5049248;28;20193;-81
2021/05/08 11:32:01;;;;;;;1.17;0.50;;;19.30;99.90;;;;;;5050848;28;20588;-80
2021/05/08 11:34:34;;;;;;;0.27;0.27;;;19.30;99.90;;;;;;5044614;28;20244;-79
2021/05/08 11:37:04;;;;;;;0.30;0.30;;;19.50;99.90;;;;;;5048031;28;20293;-80
2021/05/08 11:39:34;;;;;;;0.40;0.40;;;19.70;99.90;;;;;;5048128;28;20216;-81
2021/05/08 11:42:09;;;;;;;0.50;0.50;;;19.50;99.90;;;;;;5043206;28;20202;-80
2021/05/08 11:44:36;;;;;;;0.60;0.60;;;19.70;99.90;;;;;;5048191;28;20660;-81
2021/05/08 11:47:27;;;;;;;0.30;0.30;;;19.50;99.90;;;;;;5053087;28;20594;-81
2021/05/08 11:49:55;;;;;;;0.60;0.47;;;19.60;99.90;;;;;;5043082;28;20189;-81
2021/05/08 11:52:32;;;;;;;0.93;0.87;;;19.60;99.90;;;;;;5052160;28;20267;-80
2021/05/08 11:54:58;;;;;;;0.50;0.30;;;19.50;99.90;;;;;;5057200;28;20293;-80
2021/05/08 11:57:23;;;;;;;0.23;0.23;;;19.50;99.90;;;;;;5061902;28;20236;-81
2021/05/08 11:59:49;;;;;;;0.70;0.67;;;19.60;99.90;;;;;;5061191;28;20210;-81
2021/05/08 12:02:17;;;;;;;0.10;0.10;;;19.70;99.90;;;;;;5049267;28;20240;-79
2021/05/08 12:04:53;;;;;;;0.30;0.30;;;19.70;99.90;;;;;;5049297;28;20182;-80
2021/05/08 12:07:22;;;;;;;0.70;0.70;;;19.70;99.90;;;;;;5054441;28;20615;-80
2021/05/08 12:09:48;;;;;;;0.50;0.50;;;19.70;99.90;;;;;;5052710;28;20194;-80
2021/05/08 12:12:14;;;;;;;0.47;0.47;;;19.80;99.90;;;;;;5059922;28;20612;-80
2021/05/08 12:14:42;;;;;;;0.40;0.40;;;19.80;99.90;;;;;;5050424;28;22477;-82
2021/05/08 12:17:09;;;;;;;0.53;0.53;;;20.10;99.90;;;;;;5049711;28;20198;-81
2021/05/08 12:19:37;;;;;;;1.07;0.40;;;20.20;99.90;;;;;;5047737;28;20720;-79
2021/05/08 12:22:03;;;;;;;1.20;0.70;;;20.20;99.90;;;;;;5063631;28;20181;-80
2021/05/08 12:24:29;;;;;;;0.63;0.60;;;20.10;99.90;;;;;;5055921;28;20279;-81
2021/05/08 12:26:55;;;;;;;0.73;0.73;;;20.00;99.90;;;;;;5053003;28;20210;-80
2021/05/08 12:29:20;;;;;;;0.40;0.40;;;19.70;99.90;;;;;;5057231;28;20217;-80
2021/05/08 12:31:47;;;;;;;0.37;0.20;;;19.60;99.90;;;;;;5046435;28;20577;-81
2021/05/08 12:34:16;;;;;;;0.27;0.27;;;19.60;99.90;;;;;;5049078;28;20197;-81
2021/05/08 12:37:02;;;;;;;0.40;0.40;;;19.70;99.90;;;;;;5067595;28;20238;-79
2021/05/08 12:39:28;;;;;;;0.50;0.47;;;19.80;99.90;;;;;;5039549;28;20212;-79
2021/05/08 12:41:56;;;;;;;0.67;0.30;;;19.70;99.90;;;;;;5053887;28;20214;-80
2021/05/08 12:44:48;;;;;;;1.23;0.43;;;19.70;99.90;;;;;;5055204;28;20601;-80
2021/05/08 12:47:21;;;;;;;0.67;0.67;;;19.80;99.90;;;;;;5053841;28;20228;-80
2021/05/08 12:50:08;;;;;;;0.73;0.67;;;19.80;99.90;;;;;;5050049;28;20607;-81
2021/05/08 12:52:35;;;;;;;0.30;0.30;;;19.90;99.90;;;;;;5053243;28;20207;-80
2021/05/08 12:55:00;;;;;;;0.57;0.30;;;19.90;99.90;;;;;;5051232;28;20185;-80